createdAt,value
2023-05-22T00:00:08.786Z,8.97
2023-05-22T00:02:38.949Z,8.03
2023-05-22T00:05:06.847Z,8.87
2023-05-22T00:07:33.615Z,8.47
2023-05-22T00:10:00.276Z,8.37
2023-05-22T00:12:26.997Z,8.63
2023-05-22T00:14:53.785Z,10.03
2023-05-22T00:17:20.651Z,9.03
2023-05-22T00:19:47.717Z,9.10
2023-05-22T00:22:14.372Z,8.57
2023-05-22T00:24:41.058Z,7.73
2023-05-22T00:27:07.716Z,8.03
2023-05-22T00:29:34.606Z,7.97
2023-05-22T00:32:01.305Z,9.57
2023-05-22T00:34:28.056Z,8.33
2023-05-22T00:36:54.923Z,7.63
2023-05-22T00:39:21.803Z,8.70
2023-05-22T00:41:48.521Z,7.50
2023-05-22T00:44:15.346Z,7.43
2023-05-22T00:46:43.166Z,7.37
2023-05-22T00:49:09.925Z,8.40
2023-05-22T00:51:36.646Z,8.30
2023-05-22T00:54:04.954Z,7.70
2023-05-22T00:56:32.097Z,8.20
2023-05-22T00:58:59.527Z,8.17
2023-05-22T01:01:26.565Z,8.70
2023-05-22T01:03:53.892Z,7.50
2023-05-22T01:06:24.308Z,7.67
2023-05-22T01:08:51.000Z,8.07
2023-05-22T01:11:32.003Z,8.20
2023-05-22T01:14:20.899Z,7.30
2023-05-22T01:17:23.438Z,8.50
2023-05-22T01:20:07.525Z,6.10
2023-05-22T01:23:00.221Z,9.40
2023-05-22T01:25:30.114Z,6.47
2023-05-22T01:28:09.445Z,7.70
2023-05-22T01:30:45.120Z,7.67
2023-05-22T01:33:16.157Z,8.20
2023-05-22T01:35:47.876Z,8.10
2023-05-22T01:38:16.735Z,8.60
2023-05-22T01:40:45.798Z,8.53
2023-05-22T01:43:14.675Z,7.10
2023-05-22T01:45:41.389Z,7.97
2023-05-22T01:48:08.073Z,8.57
2023-05-22T01:50:35.038Z,7.57
2023-05-22T01:53:30.014Z,7.20
2023-05-22T01:56:01.690Z,7.83
2023-05-22T01:58:45.080Z,7.40
2023-05-22T02:01:13.600Z,7.77
2023-05-22T02:03:42.074Z,7.70
2023-05-22T02:06:11.902Z,7.50
2023-05-22T02:08:41.308Z,7.10
2023-05-22T02:11:10.869Z,8.00
2023-05-22T02:13:38.055Z,7.17
2023-05-22T02:16:06.303Z,6.50
2023-05-22T02:18:33.673Z,8.37
2023-05-22T02:21:00.850Z,7.50
2023-05-22T02:23:29.827Z,7.90
2023-05-22T02:25:56.856Z,7.80
2023-05-22T02:28:23.578Z,7.20
2023-05-22T02:30:50.591Z,7.80
2023-05-22T02:33:20.337Z,6.87
2023-05-22T02:35:47.018Z,8.13
2023-05-22T02:38:13.835Z,7.13
2023-05-22T02:40:40.921Z,7.30
2023-05-22T02:43:07.964Z,7.90
2023-05-22T02:45:34.753Z,8.07
2023-05-22T02:48:03.507Z,7.80
2023-05-22T02:50:30.367Z,7.53
2023-05-22T02:52:57.103Z,7.00
2023-05-22T02:55:23.768Z,7.90
2023-05-22T02:57:50.525Z,7.13
2023-05-22T03:00:17.730Z,7.50
2023-05-22T03:02:44.476Z,7.27
2023-05-22T03:05:11.336Z,6.30
2023-05-22T03:07:38.014Z,7.00
2023-05-22T03:10:05.016Z,7.33
2023-05-22T03:12:31.832Z,7.30
2023-05-22T03:14:58.508Z,7.30
2023-05-22T03:17:25.527Z,6.50
2023-05-22T03:19:52.367Z,7.13
2023-05-22T03:22:20.320Z,7.60
2023-05-22T03:24:47.045Z,6.70
2023-05-22T03:27:15.980Z,8.17
2023-05-22T03:29:42.710Z,8.97
2023-05-22T03:32:09.367Z,6.13
2023-05-22T03:34:36.040Z,6.57
2023-05-22T03:37:02.689Z,6.90
2023-05-22T03:39:29.383Z,7.73
2023-05-22T03:41:56.072Z,7.20
2023-05-22T03:44:22.731Z,6.50
2023-05-22T03:46:49.574Z,6.70
2023-05-22T03:49:16.297Z,6.80
2023-05-22T03:51:42.977Z,7.27
2023-05-22T03:54:09.651Z,6.00
2023-05-22T03:56:36.369Z,6.70
2023-05-22T03:59:03.223Z,6.47
2023-05-22T04:01:29.937Z,6.33
2023-05-22T04:03:56.618Z,6.43
2023-05-22T04:06:23.441Z,6.57
2023-05-22T04:08:50.308Z,6.13
2023-05-22T04:11:18.575Z,6.80
2023-05-22T04:13:45.420Z,5.90
2023-05-22T04:16:12.112Z,6.13
2023-05-22T04:18:38.837Z,6.77
2023-05-22T04:21:08.114Z,6.40
2023-05-22T04:23:35.071Z,6.67
2023-05-22T04:26:02.647Z,7.00
2023-05-22T04:28:30.372Z,5.87
2023-05-22T04:30:57.786Z,6.43
2023-05-22T04:33:24.685Z,6.60
2023-05-22T04:35:52.027Z,6.60
2023-05-22T04:38:18.913Z,6.60
2023-05-22T04:40:45.678Z,5.70
2023-05-22T04:43:12.682Z,5.97
2023-05-22T04:45:39.401Z,5.73
2023-05-22T04:48:06.388Z,5.83
2023-05-22T04:50:33.203Z,6.07
2023-05-22T04:53:00.332Z,5.47
2023-05-22T04:55:27.022Z,5.73
2023-05-22T04:57:53.787Z,6.23
2023-05-22T05:00:26.317Z,5.53
2023-05-22T05:02:53.471Z,6.13
2023-05-22T05:05:20.516Z,4.50
2023-05-22T05:07:50.062Z,6.13
2023-05-22T05:10:17.570Z,6.00
2023-05-22T05:12:44.210Z,5.90
2023-05-22T05:15:11.284Z,5.77
2023-05-22T05:17:38.403Z,6.80
2023-05-22T05:20:07.610Z,6.30
2023-05-22T05:22:34.507Z,4.90
2023-05-22T05:25:01.752Z,6.80
2023-05-22T05:27:28.481Z,6.20
2023-05-22T05:29:55.140Z,7.73
2023-05-22T05:32:21.923Z,6.10
2023-05-22T05:34:48.664Z,9.83
2023-05-22T05:37:15.368Z,6.37
2023-05-22T05:39:42.053Z,5.63
2023-05-22T05:42:08.820Z,5.43
2023-05-22T05:44:35.649Z,5.40
2023-05-22T05:47:02.303Z,5.13
2023-05-22T05:49:28.949Z,5.03
2023-05-22T05:51:55.686Z,6.10
2023-05-22T05:54:22.487Z,6.00
2023-05-22T05:56:49.210Z,5.63
2023-05-22T05:59:16.031Z,5.80
2023-05-22T06:01:45.864Z,6.00
2023-05-22T06:04:13.289Z,4.63
2023-05-22T06:06:40.116Z,4.80
2023-05-22T06:09:06.984Z,4.27
2023-05-22T06:11:34.334Z,4.93
2023-05-22T06:14:04.918Z,4.47
2023-05-22T06:16:31.815Z,4.97
2023-05-22T06:18:59.824Z,6.23
2023-05-22T06:21:26.609Z,4.73
2023-05-22T06:23:53.294Z,4.63
2023-05-22T06:26:20.109Z,4.80
2023-05-22T06:28:46.846Z,5.30
2023-05-22T06:31:14.359Z,5.20
2023-05-22T06:33:43.048Z,5.17
2023-05-22T06:36:11.492Z,5.07
2023-05-22T06:38:39.136Z,4.73
2023-05-22T06:41:06.229Z,4.70
2023-05-22T06:43:32.973Z,4.80
2023-05-22T06:45:59.813Z,5.03
2023-05-22T06:48:26.660Z,3.80
2023-05-22T06:50:53.314Z,4.90
2023-05-22T06:53:19.978Z,4.77
2023-05-22T06:55:46.706Z,4.90
2023-05-22T06:58:13.413Z,4.50
2023-05-22T07:00:40.328Z,4.47
2023-05-22T07:03:07.465Z,4.43
2023-05-22T07:05:34.344Z,4.53
2023-05-22T07:08:01.582Z,4.03
2023-05-22T07:10:28.625Z,4.33
2023-05-22T07:12:55.352Z,3.63
2023-05-22T07:15:22.064Z,4.57
2023-05-22T07:17:49.258Z,3.80
2023-05-22T07:20:16.826Z,5.00
2023-05-22T07:22:43.556Z,4.17
2023-05-22T07:25:10.441Z,4.13
2023-05-22T07:27:37.093Z,4.60
2023-05-22T07:30:04.215Z,3.93
2023-05-22T07:32:31.083Z,3.73
2023-05-22T07:34:57.955Z,4.40
2023-05-22T07:37:24.676Z,4.73
2023-05-22T07:39:51.391Z,4.27
2023-05-22T07:42:18.339Z,3.40
2023-05-22T07:44:45.019Z,3.67
2023-05-22T07:47:11.856Z,4.37
2023-05-22T07:49:38.602Z,4.60
2023-05-22T07:52:05.631Z,3.87
2023-05-22T07:54:32.356Z,3.77
2023-05-22T07:57:03.204Z,5.90
2023-05-22T07:59:29.907Z,4.43
2023-05-22T08:01:58.393Z,5.13
2023-05-22T08:04:26.056Z,3.80
2023-05-22T08:06:52.981Z,3.83
2023-05-22T08:09:21.229Z,3.80
2023-05-22T08:11:47.946Z,4.63
2023-05-22T08:14:14.630Z,3.23
2023-05-22T08:16:41.325Z,3.83
2023-05-22T08:19:08.950Z,3.90
2023-05-22T08:21:37.468Z,3.83
2023-05-22T08:24:04.460Z,4.90
2023-05-22T08:26:33.203Z,3.37
2023-05-22T08:29:00.663Z,3.30
2023-05-22T08:31:29.270Z,3.70
2023-05-22T08:34:02.337Z,4.30
2023-05-22T08:36:31.571Z,4.30
2023-05-22T08:38:58.246Z,4.17
2023-05-22T08:41:25.212Z,3.40
2023-05-22T08:43:51.896Z,3.63
2023-05-22T08:46:20.028Z,3.13
2023-05-22T08:48:47.807Z,3.00
2023-05-22T08:51:19.877Z,2.90
2023-05-22T08:53:47.518Z,3.60
2023-05-22T08:56:14.792Z,3.70
2023-05-22T08:58:41.848Z,3.03
2023-05-22T09:01:09.266Z,3.87
2023-05-22T09:03:36.883Z,3.73
2023-05-22T09:06:04.556Z,4.47
2023-05-22T09:08:31.266Z,3.87
2023-05-22T09:10:58.061Z,3.20
2023-05-22T09:13:29.451Z,3.00
2023-05-22T09:16:00.688Z,4.23
2023-05-22T09:18:28.027Z,3.57
2023-05-22T09:20:57.607Z,3.87
2023-05-22T09:23:25.582Z,3.20
2023-05-22T09:25:56.522Z,3.20
2023-05-22T09:28:23.590Z,3.03
2023-05-22T09:30:55.223Z,3.40
2023-05-22T09:33:23.174Z,3.07
2023-05-22T09:35:52.500Z,3.60
2023-05-22T09:38:21.488Z,3.23
2023-05-22T09:40:53.439Z,3.20
2023-05-22T09:43:21.232Z,3.23
2023-05-22T09:45:47.942Z,3.07
2023-05-22T09:48:17.473Z,3.63
2023-05-22T09:50:53.987Z,4.03
2023-05-22T09:53:26.341Z,3.27
2023-05-22T09:55:55.831Z,3.00
2023-05-22T09:58:25.884Z,3.50
2023-05-22T10:00:56.151Z,2.90
2023-05-22T10:03:24.595Z,3.40
2023-05-22T10:05:54.349Z,3.20
2023-05-22T10:08:26.087Z,4.17
2023-05-22T10:10:53.296Z,3.80
2023-05-22T10:13:21.071Z,4.00
2023-05-22T10:15:49.485Z,2.90
2023-05-22T10:18:17.449Z,3.50
2023-05-22T10:20:46.859Z,3.50
2023-05-22T10:23:16.448Z,3.47
2023-05-22T10:25:47.023Z,3.30
2023-05-22T10:28:19.344Z,3.27
2023-05-22T10:30:54.962Z,4.20
2023-05-22T10:33:24.615Z,4.00
2023-05-22T10:36:02.546Z,3.30
2023-05-22T10:38:47.083Z,3.47
2023-05-22T10:41:14.321Z,3.47
2023-05-22T10:43:48.297Z,3.30
2023-05-22T10:46:15.388Z,3.50
2023-05-22T10:48:45.949Z,3.67
2023-05-22T10:51:14.506Z,3.27
2023-05-22T10:53:43.530Z,3.10
2023-05-22T10:56:13.046Z,3.60
2023-05-22T10:58:42.106Z,3.53
2023-05-22T11:01:19.877Z,3.60
2023-05-22T11:03:54.245Z,3.47
2023-05-22T11:06:37.793Z,5.30
2023-05-22T11:09:19.663Z,3.27
2023-05-22T11:11:47.103Z,5.80
2023-05-22T11:14:17.166Z,4.30
2023-05-22T11:16:43.980Z,3.60
2023-05-22T11:19:22.684Z,3.30
2023-05-22T11:21:50.614Z,3.63
2023-05-22T11:24:18.256Z,3.60
2023-05-22T11:27:00.307Z,3.23
2023-05-22T11:29:28.041Z,4.30
2023-05-22T11:31:55.133Z,4.47
2023-05-22T11:34:22.301Z,3.10
2023-05-22T11:36:49.116Z,4.40
2023-05-22T11:39:15.769Z,3.77
2023-05-22T11:41:42.421Z,3.80
2023-05-22T11:44:09.343Z,3.50
2023-05-22T11:46:36.063Z,3.70
2023-05-22T11:49:02.959Z,3.00
2023-05-22T11:51:29.894Z,3.40
2023-05-22T11:53:57.672Z,3.33
2023-05-22T11:56:24.400Z,2.70
2023-05-22T11:58:51.880Z,3.83
2023-05-22T12:01:18.618Z,4.50
2023-05-22T12:03:45.434Z,3.80
2023-05-22T12:06:14.517Z,3.50
2023-05-22T12:08:43.533Z,3.70
2023-05-22T12:11:12.466Z,3.70
2023-05-22T12:13:39.265Z,3.27
2023-05-22T12:16:19.324Z,3.93
2023-05-22T12:18:46.334Z,3.30
2023-05-22T12:21:13.296Z,3.60
2023-05-22T12:23:50.010Z,3.40
2023-05-22T12:26:17.176Z,3.90
2023-05-22T12:28:44.356Z,3.37
2023-05-22T12:31:11.194Z,3.70
2023-05-22T12:33:39.796Z,3.50
2023-05-22T12:36:10.368Z,3.67
2023-05-22T12:38:38.690Z,3.00
2023-05-22T12:41:05.853Z,3.00
2023-05-22T12:43:32.545Z,3.33
2023-05-22T12:46:01.032Z,3.77
2023-05-22T12:48:29.320Z,3.70
2023-05-22T12:50:56.027Z,3.27
2023-05-22T12:53:22.769Z,3.97
2023-05-22T12:55:49.467Z,3.80
2023-05-22T12:58:16.223Z,3.97
2023-05-22T13:00:42.870Z,3.77
2023-05-22T13:03:09.902Z,4.07
2023-05-22T13:05:37.016Z,3.93
2023-05-22T13:08:04.693Z,3.30
2023-05-22T13:10:31.483Z,3.97
2023-05-22T13:12:58.184Z,3.57
2023-05-22T13:15:25.562Z,3.43
2023-05-22T13:17:52.235Z,3.60
2023-05-22T13:20:18.975Z,3.27
2023-05-22T13:22:45.775Z,4.20
2023-05-22T13:25:13.326Z,4.73
2023-05-22T13:27:40.510Z,3.20
2023-05-22T13:30:07.735Z,3.47
2023-05-22T13:32:35.093Z,3.93
2023-05-22T13:35:01.887Z,3.40
2023-05-22T13:37:28.659Z,3.10
2023-05-22T13:39:55.443Z,3.20
2023-05-22T13:42:22.401Z,3.60
2023-05-22T13:44:49.163Z,3.97
2023-05-22T13:47:16.092Z,3.30
2023-05-22T13:49:42.819Z,3.80
2023-05-22T13:52:09.540Z,3.73
2023-05-22T13:54:36.278Z,3.17
2023-05-22T13:57:03.101Z,3.20
2023-05-22T13:59:29.860Z,3.43
2023-05-22T14:01:56.626Z,2.90
2023-05-22T14:04:23.379Z,3.37
2023-05-22T14:06:50.202Z,3.23
2023-05-22T14:09:17.491Z,4.07
2023-05-22T14:11:44.294Z,3.27
2023-05-22T14:14:11.095Z,3.50
2023-05-22T14:16:37.925Z,3.50
2023-05-22T14:19:04.770Z,3.07
2023-05-22T14:21:31.501Z,2.90
2023-05-22T14:23:58.230Z,2.97
2023-05-22T14:26:25.031Z,2.90
2023-05-22T14:28:52.863Z,3.53
2023-05-22T14:31:19.640Z,2.57
2023-05-22T14:33:46.298Z,3.37
2023-05-22T14:36:12.983Z,3.23
2023-05-22T14:38:39.713Z,3.37
2023-05-22T14:41:06.391Z,2.90
2023-05-22T14:43:33.447Z,3.07
2023-05-22T14:46:00.391Z,3.47
2023-05-22T14:48:29.219Z,2.83
2023-05-22T14:50:56.153Z,3.20
2023-05-22T14:53:23.309Z,2.67
2023-05-22T14:55:50.281Z,3.10
2023-05-22T14:58:17.043Z,3.40
2023-05-22T15:00:44.352Z,2.83
2023-05-22T15:03:12.833Z,3.60
2023-05-22T15:05:39.860Z,3.73
2023-05-22T15:08:06.785Z,3.40
2023-05-22T15:10:33.469Z,3.23
2023-05-22T15:13:00.239Z,4.87
2023-05-22T15:15:26.961Z,3.90
2023-05-22T15:17:53.734Z,3.83
2023-05-22T15:20:20.532Z,3.40
2023-05-22T15:22:47.364Z,3.67
2023-05-22T15:25:16.961Z,4.73
2023-05-22T15:27:43.916Z,3.53
2023-05-22T15:30:11.970Z,3.80
2023-05-22T15:32:39.131Z,3.50
2023-05-22T15:35:06.964Z,4.37
2023-05-22T15:37:34.055Z,4.73
2023-05-22T15:40:01.832Z,3.97
2023-05-22T15:42:28.894Z,5.27
2023-05-22T15:44:55.996Z,5.03
2023-05-22T15:47:22.669Z,5.83
2023-05-22T15:49:49.359Z,5.43
2023-05-22T15:52:17.036Z,7.40
2023-05-22T15:54:43.716Z,6.37
2023-05-22T15:57:10.507Z,5.87
2023-05-22T15:59:37.138Z,6.63
2023-05-22T16:02:04.027Z,6.20
2023-05-22T16:04:31.078Z,9.10
2023-05-22T16:06:57.783Z,5.90
2023-05-22T16:09:24.443Z,6.60
2023-05-22T16:11:51.144Z,6.70
2023-05-22T16:14:17.834Z,6.33
2023-05-22T16:16:44.524Z,7.60
2023-05-22T16:19:11.559Z,7.13
2023-05-22T16:21:38.700Z,8.67
2023-05-22T16:24:06.938Z,7.70
2023-05-22T16:26:33.809Z,8.30
2023-05-22T16:29:00.496Z,13.00
2023-05-22T16:31:27.241Z,12.43
2023-05-22T16:33:54.230Z,10.70
2023-05-22T16:36:21.096Z,9.17
2023-05-22T16:38:47.768Z,7.80
2023-05-22T16:41:14.499Z,8.23
2023-05-22T16:43:41.381Z,7.90
2023-05-22T16:46:08.108Z,9.13
2023-05-22T16:48:34.829Z,10.07
2023-05-22T16:51:01.463Z,8.73
2023-05-22T16:53:28.143Z,9.00
2023-05-22T16:55:54.794Z,8.80
2023-05-22T16:58:21.828Z,9.63
2023-05-22T17:00:48.743Z,9.63
2023-05-22T17:03:15.741Z,8.60
2023-05-22T17:05:42.903Z,8.00
2023-05-22T17:08:09.797Z,9.87
2023-05-22T17:10:36.487Z,7.57
2023-05-22T17:13:03.257Z,8.97
2023-05-22T17:15:29.901Z,9.27
2023-05-22T17:17:56.772Z,9.67
2023-05-22T17:20:23.529Z,8.87
2023-05-22T17:22:50.687Z,9.10
2023-05-22T17:25:17.467Z,14.30
2023-05-22T17:27:44.604Z,8.63
2023-05-22T17:30:11.538Z,12.40
2023-05-22T17:32:38.385Z,10.47
2023-05-22T17:35:06.599Z,9.07
2023-05-22T17:37:33.906Z,10.53
2023-05-22T17:40:00.888Z,9.30
2023-05-22T17:42:27.601Z,11.67
2023-05-22T17:44:54.310Z,9.93
2023-05-22T17:47:21.128Z,15.90
2023-05-22T17:49:47.886Z,12.80
2023-05-22T17:52:14.613Z,24.80
2023-05-22T17:54:41.352Z,16.23
2023-05-22T17:57:08.050Z,11.10
2023-05-22T17:59:34.762Z,13.37
2023-05-22T18:02:01.579Z,9.53
2023-05-22T18:04:28.371Z,8.57
2023-05-22T18:06:55.063Z,11.27
2023-05-22T18:09:21.700Z,10.40
2023-05-22T18:11:52.130Z,8.73
2023-05-22T18:14:19.398Z,10.50
2023-05-22T18:16:46.114Z,15.77
2023-05-22T18:19:12.826Z,13.30
2023-05-22T18:21:39.542Z,13.53
2023-05-22T18:24:06.448Z,9.20
2023-05-22T18:26:33.222Z,9.03
2023-05-22T18:28:59.904Z,9.03
2023-05-22T18:31:26.867Z,8.80
2023-05-22T18:33:53.533Z,9.03
2023-05-22T18:36:20.603Z,10.83
2023-05-22T18:38:47.275Z,9.03
2023-05-22T18:41:13.946Z,9.10
2023-05-22T18:43:40.730Z,7.80
2023-05-22T18:46:07.512Z,8.77
2023-05-22T18:48:34.172Z,9.43
2023-05-22T18:51:01.107Z,9.40
2023-05-22T18:53:27.791Z,9.30
2023-05-22T18:55:54.458Z,9.73
2023-05-22T18:58:21.593Z,9.20
2023-05-22T19:00:48.634Z,8.00
2023-05-22T19:03:15.459Z,7.47
2023-05-22T19:05:42.959Z,14.00
2023-05-22T19:08:09.829Z,12.33
2023-05-22T19:10:36.506Z,8.50
2023-05-22T19:13:03.883Z,7.37
2023-05-22T19:15:30.639Z,9.47
2023-05-22T19:17:57.567Z,8.50
2023-05-22T19:20:24.331Z,8.20
2023-05-22T19:22:51.475Z,8.20
2023-05-22T19:25:18.518Z,8.13
2023-05-22T19:27:45.817Z,8.10
2023-05-22T19:30:15.079Z,7.87
2023-05-22T19:32:45.034Z,6.87
2023-05-22T19:35:11.892Z,8.33
2023-05-22T19:37:38.596Z,8.47
2023-05-22T19:40:06.048Z,8.57
2023-05-22T19:42:33.000Z,8.77
2023-05-22T19:44:59.886Z,10.17
2023-05-22T19:47:27.240Z,9.70
2023-05-22T19:49:54.007Z,9.70
2023-05-22T19:52:20.784Z,8.40
2023-05-22T19:54:47.444Z,8.67
2023-05-22T19:57:14.128Z,7.83
2023-05-22T19:59:40.813Z,8.10
2023-05-22T20:02:07.609Z,7.97
2023-05-22T20:04:34.508Z,7.97
2023-05-22T20:07:02.243Z,8.00
2023-05-22T20:09:29.028Z,7.73
2023-05-22T20:11:55.762Z,7.47
2023-05-22T20:34:18.500Z,7.57
2023-05-22T20:36:46.507Z,8.40
2023-05-22T20:39:13.286Z,9.00
2023-05-22T20:41:39.959Z,9.67
2023-05-22T20:44:06.710Z,9.80
2023-05-22T20:46:33.738Z,10.43
2023-05-22T20:49:02.897Z,12.50
2023-05-22T20:51:32.571Z,10.33
2023-05-22T20:54:00.207Z,13.73
2023-05-22T20:56:27.215Z,11.67
2023-05-22T20:58:54.540Z,11.60
2023-05-22T21:01:21.645Z,9.80
2023-05-22T21:03:49.994Z,11.43
2023-05-22T21:06:16.716Z,11.50
2023-05-22T21:08:43.406Z,10.80
2023-05-22T21:11:10.133Z,10.37
2023-05-22T21:13:36.921Z,10.07
2023-05-22T21:16:03.686Z,11.80
2023-05-22T21:18:30.709Z,10.40
2023-05-22T21:20:57.377Z,11.33
2023-05-22T21:23:24.755Z,11.80
2023-05-22T21:25:51.494Z,16.00
2023-05-22T21:28:18.110Z,14.97
2023-05-22T21:30:44.774Z,11.90
2023-05-22T21:33:11.982Z,12.10
2023-05-22T21:35:38.719Z,12.90
2023-05-22T21:38:05.410Z,10.87
2023-05-22T21:40:32.061Z,11.40
2023-05-22T21:42:58.696Z,12.13
2023-05-22T21:45:25.515Z,12.50
2023-05-22T21:47:52.289Z,12.40
2023-05-22T21:50:19.190Z,13.10
2023-05-22T21:52:45.890Z,12.80
2023-05-22T21:55:12.563Z,13.23
2023-05-22T21:57:39.713Z,13.00
2023-05-22T22:00:07.760Z,11.37
2023-05-22T22:02:34.573Z,11.73
2023-05-22T22:05:01.287Z,12.23
2023-05-22T22:07:28.008Z,11.77
2023-05-22T22:09:54.667Z,12.23
2023-05-22T22:12:21.386Z,14.10
2023-05-22T22:14:48.033Z,13.40
2023-05-22T22:17:16.548Z,12.13
2023-05-22T22:19:43.978Z,12.90
2023-05-22T22:22:12.386Z,12.13
2023-05-22T22:24:39.155Z,12.00
2023-05-22T22:27:06.095Z,11.00
2023-05-22T22:29:32.845Z,11.40
2023-05-22T22:31:59.602Z,11.50
2023-05-22T22:34:26.302Z,11.87
2023-05-22T22:36:53.008Z,11.50
2023-05-22T22:39:19.681Z,10.97
2023-05-22T22:41:46.321Z,11.00
2023-05-22T22:44:12.965Z,10.87
2023-05-22T22:46:40.037Z,11.20
2023-05-22T22:49:07.001Z,10.70
2023-05-22T22:51:34.518Z,9.97
2023-05-22T22:54:01.369Z,11.10
2023-05-22T22:56:31.206Z,11.00
2023-05-22T22:58:57.966Z,9.27
2023-05-22T23:01:24.803Z,9.90
2023-05-22T23:03:51.879Z,10.77
2023-05-22T23:06:19.388Z,11.17
2023-05-22T23:08:46.142Z,11.00
2023-05-22T23:11:12.913Z,10.33
2023-05-22T23:13:41.226Z,10.93
2023-05-22T23:16:08.211Z,9.67
2023-05-22T23:18:35.329Z,9.63
2023-05-22T23:21:01.998Z,10.40
2023-05-22T23:23:28.627Z,10.97
2023-05-22T23:25:56.761Z,10.53
2023-05-22T23:28:25.395Z,9.00
2023-05-22T23:30:52.854Z,10.20
2023-05-22T23:33:19.613Z,10.80
2023-05-22T23:35:46.261Z,10.30
2023-05-22T23:38:12.890Z,10.93
2023-05-22T23:40:39.569Z,9.70
2023-05-22T23:43:06.511Z,10.00
2023-05-22T23:45:33.207Z,9.63
2023-05-22T23:47:59.962Z,9.97
2023-05-22T23:50:26.723Z,9.67
2023-05-22T23:52:53.986Z,10.00
2023-05-22T23:55:20.837Z,10.00
2023-05-22T23:57:47.510Z,9.20
